sensor_id;sensor_type;location;lat;lon;timestamp;temperature;humidity
3348;DHT22;1687;49.540;8.574;2024-03-06T00:01:52;9.50;93.30
3348;DHT22;1687;49.540;8.574;2024-03-06T00:04:18;9.50;93.20
3348;DHT22;1687;49.540;8.574;2024-03-06T00:06:43;9.50;93.40
3348;DHT22;1687;49.540;8.574;2024-03-06T00:09:09;9.50;93.60
3348;DHT22;1687;49.540;8.574;2024-03-06T00:11:35;9.50;93.50
3348;DHT22;1687;49.540;8.574;2024-03-06T00:14:03;9.50;93.70
3348;DHT22;1687;49.540;8.574;2024-03-06T00:16:33;9.50;93.40
3348;DHT22;1687;49.540;8.574;2024-03-06T00:18:59;9.50;93.50
3348;DHT22;1687;49.540;8.574;2024-03-06T00:21:25;9.50;93.60
3348;DHT22;1687;49.540;8.574;2024-03-06T00:23:50;9.60;93.60
3348;DHT22;1687;49.540;8.574;2024-03-06T00:26:16;9.60;93.50
3348;DHT22;1687;49.540;8.574;2024-03-06T00:28:42;9.60;93.70
3348;DHT22;1687;49.540;8.574;2024-03-06T00:31:08;9.50;93.60
3348;DHT22;1687;49.540;8.574;2024-03-06T00:33:33;9.50;93.80
3348;DHT22;1687;49.540;8.574;2024-03-06T00:35:59;9.50;93.80
3348;DHT22;1687;49.540;8.574;2024-03-06T00:38:25;9.50;93.70
3348;DHT22;1687;49.540;8.574;2024-03-06T00:40:50;9.50;94.00
3348;DHT22;1687;49.540;8.574;2024-03-06T00:43:16;9.60;93.70
3348;DHT22;1687;49.540;8.574;2024-03-06T00:45:42;9.50;93.20
3348;DHT22;1687;49.540;8.574;2024-03-06T00:48:08;9.40;93.50
3348;DHT22;1687;49.540;8.574;2024-03-06T00:50:33;9.40;93.40
3348;DHT22;1687;49.540;8.574;2024-03-06T00:52:59;9.30;93.70
3348;DHT22;1687;49.540;8.574;2024-03-06T00:55:25;9.40;94.00
3348;DHT22;1687;49.540;8.574;2024-03-06T00:57:51;9.30;93.80
3348;DHT22;1687;49.540;8.574;2024-03-06T01:00:17;9.30;93.70
3348;DHT22;1687;49.540;8.574;2024-03-06T01:02:44;9.30;93.90
3348;DHT22;1687;49.540;8.574;2024-03-06T01:05:09;9.30;94.30
3348;DHT22;1687;49.540;8.574;2024-03-06T01:07:37;9.40;94.40
3348;DHT22;1687;49.540;8.574;2024-03-06T01:10:04;9.40;94.00
3348;DHT22;1687;49.540;8.574;2024-03-06T01:12:32;9.30;93.90
3348;DHT22;1687;49.540;8.574;2024-03-06T01:14:58;9.30;94.20
3348;DHT22;1687;49.540;8.574;2024-03-06T01:17:24;9.40;94.20
3348;DHT22;1687;49.540;8.574;2024-03-06T01:19:50;9.40;94.40
3348;DHT22;1687;49.540;8.574;2024-03-06T01:22:16;9.40;94.40
3348;DHT22;1687;49.540;8.574;2024-03-06T01:24:42;9.40;93.90
3348;DHT22;1687;49.540;8.574;2024-03-06T01:27:08;9.40;94.20
3348;DHT22;1687;49.540;8.574;2024-03-06T01:29:34;9.30;94.20
3348;DHT22;1687;49.540;8.574;2024-03-06T01:32:01;9.30;94.20
3348;DHT22;1687;49.540;8.574;2024-03-06T01:34:27;9.20;94.00
3348;DHT22;1687;49.540;8.574;2024-03-06T01:36:53;9.20;94.10
3348;DHT22;1687;49.540;8.574;2024-03-06T01:39:19;9.10;94.10
3348;DHT22;1687;49.540;8.574;2024-03-06T01:41:49;9.10;94.10
3348;DHT22;1687;49.540;8.574;2024-03-06T01:44:17;9.10;94.70
3348;DHT22;1687;49.540;8.574;2024-03-06T01:46:44;9.10;94.60
3348;DHT22;1687;49.540;8.574;2024-03-06T01:49:10;9.10;94.60
3348;DHT22;1687;49.540;8.574;2024-03-06T01:51:37;9.10;94.30
3348;DHT22;1687;49.540;8.574;2024-03-06T01:54:03;9.20;94.60
3348;DHT22;1687;49.540;8.574;2024-03-06T01:56:33;9.10;94.60
3348;DHT22;1687;49.540;8.574;2024-03-06T01:58:59;9.10;94.50
3348;DHT22;1687;49.540;8.574;2024-03-06T02:01:25;9.00;93.90
3348;DHT22;1687;49.540;8.574;2024-03-06T02:03:52;8.90;94.20
3348;DHT22;1687;49.540;8.574;2024-03-06T02:06:18;8.90;94.80
3348;DHT22;1687;49.540;8.574;2024-03-06T02:08:45;8.80;94.20
3348;DHT22;1687;49.540;8.574;2024-03-06T02:11:15;8.80;94.60
3348;DHT22;1687;49.540;8.574;2024-03-06T02:13:43;8.70;94.30
3348;DHT22;1687;49.540;8.574;2024-03-06T02:16:09;8.70;94.50
3348;DHT22;1687;49.540;8.574;2024-03-06T02:18:36;8.70;95.00
3348;DHT22;1687;49.540;8.574;2024-03-06T02:21:02;8.60;94.80
3348;DHT22;1687;49.540;8.574;2024-03-06T02:23:30;8.60;94.50
3348;DHT22;1687;49.540;8.574;2024-03-06T02:25:56;8.60;94.50
3348;DHT22;1687;49.540;8.574;2024-03-06T02:28:22;8.50;94.70
3348;DHT22;1687;49.540;8.574;2024-03-06T02:30:50;8.60;95.10
3348;DHT22;1687;49.540;8.574;2024-03-06T02:33:16;8.60;95.30
3348;DHT22;1687;49.540;8.574;2024-03-06T02:35:43;8.70;95.10
3348;DHT22;1687;49.540;8.574;2024-03-06T02:38:10;8.70;95.10
3348;DHT22;1687;49.540;8.574;2024-03-06T02:40:36;8.70;95.10
3348;DHT22;1687;49.540;8.574;2024-03-06T02:43:02;8.70;95.00
3348;DHT22;1687;49.540;8.574;2024-03-06T02:45:28;8.70;95.10
3348;DHT22;1687;49.540;8.574;2024-03-06T02:47:53;8.60;94.80
3348;DHT22;1687;49.540;8.574;2024-03-06T02:50:19;8.50;94.90
3348;DHT22;1687;49.540;8.574;2024-03-06T02:52:46;8.50;95.00
3348;DHT22;1687;49.540;8.574;2024-03-06T02:55:12;8.50;95.00
3348;DHT22;1687;49.540;8.574;2024-03-06T02:57:37;8.50;95.20
3348;DHT22;1687;49.540;8.574;2024-03-06T03:00:03;8.40;95.00
3348;DHT22;1687;49.540;8.574;2024-03-06T03:02:30;8.40;95.20
3348;DHT22;1687;49.540;8.574;2024-03-06T03:04:56;8.40;95.30
3348;DHT22;1687;49.540;8.574;2024-03-06T03:07:23;8.40;95.30
3348;DHT22;1687;49.540;8.574;2024-03-06T03:09:48;8.30;95.00
3348;DHT22;1687;49.540;8.574;2024-03-06T03:12:14;8.30;94.80
3348;DHT22;1687;49.540;8.574;2024-03-06T03:14:40;8.20;95.00
3348;DHT22;1687;49.540;8.574;2024-03-06T03:17:06;8.20;95.40
3348;DHT22;1687;49.540;8.574;2024-03-06T03:19:32;8.10;94.90
3348;DHT22;1687;49.540;8.574;2024-03-06T03:21:59;8.10;95.10
3348;DHT22;1687;49.540;8.574;2024-03-06T03:24:24;8.10;95.50
3348;DHT22;1687;49.540;8.574;2024-03-06T03:26:53;8.10;95.40
3348;DHT22;1687;49.540;8.574;2024-03-06T03:29:18;8.10;95.70
3348;DHT22;1687;49.540;8.574;2024-03-06T03:31:46;8.00;95.10
3348;DHT22;1687;49.540;8.574;2024-03-06T03:34:12;8.10;95.70
3348;DHT22;1687;49.540;8.574;2024-03-06T03:36:43;8.10;95.60
3348;DHT22;1687;49.540;8.574;2024-03-06T03:39:10;8.10;95.40
3348;DHT22;1687;49.540;8.574;2024-03-06T03:41:45;8.10;95.40
3348;DHT22;1687;49.540;8.574;2024-03-06T03:44:15;8.00;95.20
3348;DHT22;1687;49.540;8.574;2024-03-06T03:46:42;8.00;95.50
3348;DHT22;1687;49.540;8.574;2024-03-06T03:49:08;8.00;95.50
3348;DHT22;1687;49.540;8.574;2024-03-06T03:51:35;8.00;95.40
3348;DHT22;1687;49.540;8.574;2024-03-06T03:54:02;7.90;95.40
3348;DHT22;1687;49.540;8.574;2024-03-06T03:56:27;7.90;95.50
3348;DHT22;1687;49.540;8.574;2024-03-06T03:58:53;7.90;95.50
3348;DHT22;1687;49.540;8.574;2024-03-06T04:01:19;7.80;95.30
3348;DHT22;1687;49.540;8.574;2024-03-06T04:03:44;7.70;95.30
3348;DHT22;1687;49.540;8.574;2024-03-06T04:06:10;7.70;95.60
3348;DHT22;1687;49.540;8.574;2024-03-06T04:08:36;7.70;95.80
3348;DHT22;1687;49.540;8.574;2024-03-06T04:11:04;7.70;95.60
3348;DHT22;1687;49.540;8.574;2024-03-06T04:13:30;7.70;95.50
3348;DHT22;1687;49.540;8.574;2024-03-06T04:16:01;7.60;95.20
3348;DHT22;1687;49.540;8.574;2024-03-06T04:18:28;7.50;95.30
3348;DHT22;1687;49.540;8.574;2024-03-06T04:20:54;7.50;95.50
3348;DHT22;1687;49.540;8.574;2024-03-06T04:23:20;7.50;95.70
3348;DHT22;1687;49.540;8.574;2024-03-06T04:25:46;7.50;96.00
3348;DHT22;1687;49.540;8.574;2024-03-06T04:28:11;7.50;95.70
3348;DHT22;1687;49.540;8.574;2024-03-06T04:30:38;7.60;95.90
3348;DHT22;1687;49.540;8.574;2024-03-06T04:33:04;7.50;95.30
3348;DHT22;1687;49.540;8.574;2024-03-06T04:35:29;7.50;95.50
3348;DHT22;1687;49.540;8.574;2024-03-06T04:37:55;7.50;95.40
3348;DHT22;1687;49.540;8.574;2024-03-06T04:40:21;7.40;95.10
3348;DHT22;1687;49.540;8.574;2024-03-06T04:42:48;7.40;95.20
3348;DHT22;1687;49.540;8.574;2024-03-06T04:45:17;7.30;95.40
3348;DHT22;1687;49.540;8.574;2024-03-06T04:47:43;7.30;95.90
3348;DHT22;1687;49.540;8.574;2024-03-06T04:50:12;7.40;95.70
3348;DHT22;1687;49.540;8.574;2024-03-06T04:52:40;7.30;95.40
3348;DHT22;1687;49.540;8.574;2024-03-06T04:55:06;7.20;95.10
3348;DHT22;1687;49.540;8.574;2024-03-06T04:57:34;7.10;95.00
3348;DHT22;1687;49.540;8.574;2024-03-06T05:00:00;7.00;95.20
3348;DHT22;1687;49.540;8.574;2024-03-06T05:02:28;7.00;95.40
3348;DHT22;1687;49.540;8.574;2024-03-06T05:04:53;7.00;95.60
3348;DHT22;1687;49.540;8.574;2024-03-06T05:07:19;7.00;96.20
3348;DHT22;1687;49.540;8.574;2024-03-06T05:09:45;7.00;95.90
3348;DHT22;1687;49.540;8.574;2024-03-06T05:12:10;7.10;95.80
3348;DHT22;1687;49.540;8.574;2024-03-06T05:14:36;7.10;96.00
3348;DHT22;1687;49.540;8.574;2024-03-06T05:17:02;7.10;95.70
3348;DHT22;1687;49.540;8.574;2024-03-06T05:19:28;7.10;95.70
3348;DHT22;1687;49.540;8.574;2024-03-06T05:21:58;7.00;95.50
3348;DHT22;1687;49.540;8.574;2024-03-06T05:24:24;6.90;95.70
3348;DHT22;1687;49.540;8.574;2024-03-06T05:26:50;6.90;95.50
3348;DHT22;1687;49.540;8.574;2024-03-06T05:29:16;6.80;95.40
3348;DHT22;1687;49.540;8.574;2024-03-06T05:31:42;6.90;96.00
3348;DHT22;1687;49.540;8.574;2024-03-06T05:34:07;6.80;95.80
3348;DHT22;1687;49.540;8.574;2024-03-06T05:36:33;6.80;95.80
3348;DHT22;1687;49.540;8.574;2024-03-06T05:38:59;6.80;96.20
3348;DHT22;1687;49.540;8.574;2024-03-06T05:41:24;6.90;96.60
3348;DHT22;1687;49.540;8.574;2024-03-06T05:43:50;7.00;96.80
3348;DHT22;1687;49.540;8.574;2024-03-06T05:46:16;7.10;96.80
3348;DHT22;1687;49.540;8.574;2024-03-06T05:48:42;7.30;97.00
3348;DHT22;1687;49.540;8.574;2024-03-06T05:51:07;7.50;97.10
3348;DHT22;1687;49.540;8.574;2024-03-06T05:53:37;7.60;97.00
3348;DHT22;1687;49.540;8.574;2024-03-06T05:56:05;7.70;96.90
3348;DHT22;1687;49.540;8.574;2024-03-06T05:58:31;7.70;96.00
3348;DHT22;1687;49.540;8.574;2024-03-06T06:00:58;7.70;96.00
3348;DHT22;1687;49.540;8.574;2024-03-06T06:03:23;7.60;96.30
3348;DHT22;1687;49.540;8.574;2024-03-06T06:05:49;7.60;96.30
3348;DHT22;1687;49.540;8.574;2024-03-06T06:08:15;7.60;96.30
3348;DHT22;1687;49.540;8.574;2024-03-06T06:10:41;7.60;96.50
3348;DHT22;1687;49.540;8.574;2024-03-06T06:13:06;7.60;96.10
3348;DHT22;1687;49.540;8.574;2024-03-06T06:15:32;7.60;96.60
3348;DHT22;1687;49.540;8.574;2024-03-06T06:17:58;7.60;96.60
3348;DHT22;1687;49.540;8.574;2024-03-06T06:20:23;7.70;96.50
3348;DHT22;1687;49.540;8.574;2024-03-06T06:22:49;7.70;96.10
3348;DHT22;1687;49.540;8.574;2024-03-06T06:25:15;7.60;96.10
3348;DHT22;1687;49.540;8.574;2024-03-06T06:27:41;7.60;96.40
3348;DHT22;1687;49.540;8.574;2024-03-06T06:30:07;7.70;96.40
3348;DHT22;1687;49.540;8.574;2024-03-06T06:32:42;7.70;96.60
3348;DHT22;1687;49.540;8.574;2024-03-06T06:35:09;7.70;96.30
3348;DHT22;1687;49.540;8.574;2024-03-06T06:37:35;7.70;96.70
3348;DHT22;1687;49.540;8.574;2024-03-06T06:40:02;7.70;96.60
3348;DHT22;1687;49.540;8.574;2024-03-06T06:42:32;7.70;96.50
3348;DHT22;1687;49.540;8.574;2024-03-06T06:44:59;7.80;96.70
3348;DHT22;1687;49.540;8.574;2024-03-06T06:47:26;7.80;96.30
3348;DHT22;1687;49.540;8.574;2024-03-06T06:49:52;7.70;96.40
3348;DHT22;1687;49.540;8.574;2024-03-06T06:52:17;7.80;96.70
3348;DHT22;1687;49.540;8.574;2024-03-06T06:54:44;7.80;96.60
3348;DHT22;1687;49.540;8.574;2024-03-06T06:57:10;7.90;96.80
3348;DHT22;1687;49.540;8.574;2024-03-06T06:59:36;7.90;96.20
3348;DHT22;1687;49.540;8.574;2024-03-06T07:02:03;7.90;96.40
3348;DHT22;1687;49.540;8.574;2024-03-06T07:04:29;7.90;96.40
3348;DHT22;1687;49.540;8.574;2024-03-06T07:06:54;7.90;96.40
3348;DHT22;1687;49.540;8.574;2024-03-06T07:09:20;7.90;96.50
3348;DHT22;1687;49.540;8.574;2024-03-06T07:11:46;8.00;96.70
3348;DHT22;1687;49.540;8.574;2024-03-06T07:14:14;8.00;96.70
3348;DHT22;1687;49.540;8.574;2024-03-06T07:16:44;8.00;96.80
3348;DHT22;1687;49.540;8.574;2024-03-06T07:19:10;8.00;97.00
3348;DHT22;1687;49.540;8.574;2024-03-06T07:21:36;8.00;96.60
3348;DHT22;1687;49.540;8.574;2024-03-06T07:24:03;8.10;97.00
3348;DHT22;1687;49.540;8.574;2024-03-06T07:26:30;8.10;96.40
3348;DHT22;1687;49.540;8.574;2024-03-06T07:28:57;8.10;96.60
3348;DHT22;1687;49.540;8.574;2024-03-06T07:31:24;8.10;96.90
3348;DHT22;1687;49.540;8.574;2024-03-06T07:33:50;8.20;96.70
3348;DHT22;1687;49.540;8.574;2024-03-06T07:36:16;8.20;96.50
3348;DHT22;1687;49.540;8.574;2024-03-06T07:38:42;8.20;96.40
3348;DHT22;1687;49.540;8.574;2024-03-06T07:41:08;8.30;97.00
3348;DHT22;1687;49.540;8.574;2024-03-06T07:43:34;8.40;97.10
3348;DHT22;1687;49.540;8.574;2024-03-06T07:45:59;8.50;97.10
3348;DHT22;1687;49.540;8.574;2024-03-06T07:48:26;8.60;96.90
3348;DHT22;1687;49.540;8.574;2024-03-06T07:50:51;8.60;96.70
3348;DHT22;1687;49.540;8.574;2024-03-06T07:53:17;8.70;97.00
3348;DHT22;1687;49.540;8.574;2024-03-06T07:55:43;8.80;97.10
3348;DHT22;1687;49.540;8.574;2024-03-06T07:58:09;8.90;97.10
3348;DHT22;1687;49.540;8.574;2024-03-06T08:00:35;8.90;96.70
3348;DHT22;1687;49.540;8.574;2024-03-06T08:03:01;9.00;96.80
3348;DHT22;1687;49.540;8.574;2024-03-06T08:05:28;9.10;96.70
3348;DHT22;1687;49.540;8.574;2024-03-06T08:07:54;9.00;96.30
3348;DHT22;1687;49.540;8.574;2024-03-06T08:10:19;9.00;96.20
3348;DHT22;1687;49.540;8.574;2024-03-06T08:12:45;9.00;96.80
3348;DHT22;1687;49.540;8.574;2024-03-06T08:15:14;9.10;96.40
3348;DHT22;1687;49.540;8.574;2024-03-06T08:17:42;9.00;96.10
3348;DHT22;1687;49.540;8.574;2024-03-06T08:20:11;9.00;96.40
3348;DHT22;1687;49.540;8.574;2024-03-06T08:22:39;9.10;96.70
3348;DHT22;1687;49.540;8.574;2024-03-06T08:25:10;9.20;96.80
3348;DHT22;1687;49.540;8.574;2024-03-06T08:27:39;9.30;97.20
3348;DHT22;1687;49.540;8.574;2024-03-06T08:30:06;9.50;97.30
3348;DHT22;1687;49.540;8.574;2024-03-06T08:32:34;9.60;97.00
3348;DHT22;1687;49.540;8.574;2024-03-06T08:35:13;9.70;96.80
3348;DHT22;1687;49.540;8.574;2024-03-06T08:37:42;9.80;96.50
3348;DHT22;1687;49.540;8.574;2024-03-06T08:40:08;9.90;96.80
3348;DHT22;1687;49.540;8.574;2024-03-06T08:42:43;10.00;96.10
3348;DHT22;1687;49.540;8.574;2024-03-06T08:45:09;10.00;95.40
3348;DHT22;1687;49.540;8.574;2024-03-06T08:47:44;10.00;94.90
3348;DHT22;1687;49.540;8.574;2024-03-06T08:50:11;9.80;95.70
3348;DHT22;1687;49.540;8.574;2024-03-06T08:52:38;9.90;96.40
3348;DHT22;1687;49.540;8.574;2024-03-06T08:55:05;9.90;95.70
3348;DHT22;1687;49.540;8.574;2024-03-06T08:57:31;9.80;95.80
3348;DHT22;1687;49.540;8.574;2024-03-06T08:59:58;9.80;95.60
3348;DHT22;1687;49.540;8.574;2024-03-06T09:02:24;9.80;96.10
3348;DHT22;1687;49.540;8.574;2024-03-06T09:04:51;9.80;95.80
3348;DHT22;1687;49.540;8.574;2024-03-06T09:07:18;9.90;95.80
3348;DHT22;1687;49.540;8.574;2024-03-06T09:09:44;9.90;96.00
3348;DHT22;1687;49.540;8.574;2024-03-06T09:12:10;10.00;96.00
3348;DHT22;1687;49.540;8.574;2024-03-06T09:14:37;10.10;95.50
3348;DHT22;1687;49.540;8.574;2024-03-06T09:17:04;10.20;95.10
3348;DHT22;1687;49.540;8.574;2024-03-06T09:19:31;10.20;95.60
3348;DHT22;1687;49.540;8.574;2024-03-06T09:21:58;10.30;95.00
3348;DHT22;1687;49.540;8.574;2024-03-06T09:24:24;10.20;94.10
3348;DHT22;1687;49.540;8.574;2024-03-06T09:26:51;10.20;94.80
3348;DHT22;1687;49.540;8.574;2024-03-06T09:29:18;10.20;95.00
3348;DHT22;1687;49.540;8.574;2024-03-06T09:31:44;10.20;94.70
3348;DHT22;1687;49.540;8.574;2024-03-06T09:34:11;10.30;95.00
3348;DHT22;1687;49.540;8.574;2024-03-06T09:36:39;10.40;94.90
3348;DHT22;1687;49.540;8.574;2024-03-06T09:39:05;10.40;94.60
3348;DHT22;1687;49.540;8.574;2024-03-06T09:41:31;10.40;94.60
3348;DHT22;1687;49.540;8.574;2024-03-06T09:43:58;10.50;94.50
3348;DHT22;1687;49.540;8.574;2024-03-06T09:46:25;10.50;94.50
3348;DHT22;1687;49.540;8.574;2024-03-06T09:48:52;10.50;94.60
3348;DHT22;1687;49.540;8.574;2024-03-06T09:51:18;10.60;94.20
3348;DHT22;1687;49.540;8.574;2024-03-06T09:53:46;10.70;94.80
3348;DHT22;1687;49.540;8.574;2024-03-06T09:56:15;10.90;94.80
3348;DHT22;1687;49.540;8.574;2024-03-06T09:58:41;10.90;94.00
3348;DHT22;1687;49.540;8.574;2024-03-06T10:01:07;11.00;94.30
3348;DHT22;1687;49.540;8.574;2024-03-06T10:03:37;11.00;93.80
3348;DHT22;1687;49.540;8.574;2024-03-06T10:06:02;11.10;93.60
3348;DHT22;1687;49.540;8.574;2024-03-06T10:08:28;11.10;93.60
3348;DHT22;1687;49.540;8.574;2024-03-06T10:10:54;11.10;93.40
3348;DHT22;1687;49.540;8.574;2024-03-06T10:13:24;11.10;93.40
3348;DHT22;1687;49.540;8.574;2024-03-06T10:16:04;11.30;94.20
3348;DHT22;1687;49.540;8.574;2024-03-06T10:18:36;11.50;94.10
3348;DHT22;1687;49.540;8.574;2024-03-06T10:21:04;11.60;93.00
3348;DHT22;1687;49.540;8.574;2024-03-06T10:23:31;11.70;92.90
3348;DHT22;1687;49.540;8.574;2024-03-06T10:25:57;11.70;93.10
3348;DHT22;1687;49.540;8.574;2024-03-06T10:28:23;11.80;92.70
3348;DHT22;1687;49.540;8.574;2024-03-06T10:30:50;11.90;93.30
3348;DHT22;1687;49.540;8.574;2024-03-06T10:33:18;12.00;93.00
3348;DHT22;1687;49.540;8.574;2024-03-06T10:35:45;12.10;92.80
3348;DHT22;1687;49.540;8.574;2024-03-06T10:38:12;12.20;92.70
3348;DHT22;1687;49.540;8.574;2024-03-06T10:40:40;12.30;92.40
3348;DHT22;1687;49.540;8.574;2024-03-06T10:43:08;12.50;92.60
3348;DHT22;1687;49.540;8.574;2024-03-06T10:48:14;12.80;92.70
3348;DHT22;1687;49.540;8.574;2024-03-06T10:50:41;13.00;91.90
3348;DHT22;1687;49.540;8.574;2024-03-06T10:53:11;13.00;91.50
3348;DHT22;1687;49.540;8.574;2024-03-06T10:55:39;12.90;91.00
3348;DHT22;1687;49.540;8.574;2024-03-06T10:58:09;13.00;91.60
3348;DHT22;1687;49.540;8.574;2024-03-06T11:00:40;13.00;91.40
3348;DHT22;1687;49.540;8.574;2024-03-06T11:03:08;13.10;91.20
3348;DHT22;1687;49.540;8.574;2024-03-06T11:05:38;13.00;90.70
3348;DHT22;1687;49.540;8.574;2024-03-06T11:08:07;13.00;90.40
3348;DHT22;1687;49.540;8.574;2024-03-06T11:10:34;12.90;89.70
3348;DHT22;1687;49.540;8.574;2024-03-06T11:13:01;12.70;90.10
3348;DHT22;1687;49.540;8.574;2024-03-06T11:15:28;12.80;90.10
3348;DHT22;1687;49.540;8.574;2024-03-06T11:17:54;12.80;89.40
3348;DHT22;1687;49.540;8.574;2024-03-06T11:20:22;12.70;89.00
3348;DHT22;1687;49.540;8.574;2024-03-06T11:28:22;12.80;89.40
3348;DHT22;1687;49.540;8.574;2024-03-06T11:31:06;12.90;89.10
3348;DHT22;1687;49.540;8.574;2024-03-06T11:33:42;12.90;88.30
3348;DHT22;1687;49.540;8.574;2024-03-06T11:38:47;13.10;88.10
3348;DHT22;1687;49.540;8.574;2024-03-06T11:41:13;13.10;87.50
3348;DHT22;1687;49.540;8.574;2024-03-06T11:43:43;13.10;87.20
3348;DHT22;1687;49.540;8.574;2024-03-06T11:46:09;13.10;86.80
3348;DHT22;1687;49.540;8.574;2024-03-06T11:48:36;13.10;86.70
3348;DHT22;1687;49.540;8.574;2024-03-06T11:51:02;13.20;86.60
3348;DHT22;1687;49.540;8.574;2024-03-06T11:53:33;13.20;86.20
3348;DHT22;1687;49.540;8.574;2024-03-06T11:56:07;13.20;86.20
3348;DHT22;1687;49.540;8.574;2024-03-06T11:58:33;13.20;85.90
3348;DHT22;1687;49.540;8.574;2024-03-06T12:01:00;13.10;84.70
3348;DHT22;1687;49.540;8.574;2024-03-06T12:03:27;13.10;85.00
3348;DHT22;1687;49.540;8.574;2024-03-06T12:05:53;13.00;85.40
3348;DHT22;1687;49.540;8.574;2024-03-06T12:08:18;12.90;84.20
3348;DHT22;1687;49.540;8.574;2024-03-06T12:10:45;12.90;84.20
3348;DHT22;1687;49.540;8.574;2024-03-06T12:13:13;12.90;84.20
3348;DHT22;1687;49.540;8.574;2024-03-06T12:15:42;12.90;83.80
3348;DHT22;1687;49.540;8.574;2024-03-06T12:18:08;12.90;84.20
3348;DHT22;1687;49.540;8.574;2024-03-06T12:20:33;12.90;83.50
3348;DHT22;1687;49.540;8.574;2024-03-06T12:22:59;12.90;83.90
3348;DHT22;1687;49.540;8.574;2024-03-06T12:25:26;13.00;83.80
3348;DHT22;1687;49.540;8.574;2024-03-06T12:27:54;13.00;82.90
3348;DHT22;1687;49.540;8.574;2024-03-06T12:30:21;12.90;82.90
3348;DHT22;1687;49.540;8.574;2024-03-06T12:32:58;12.90;82.80
3348;DHT22;1687;49.540;8.574;2024-03-06T12:35:25;12.90;82.70
3348;DHT22;1687;49.540;8.574;2024-03-06T12:37:52;12.80;82.50
3348;DHT22;1687;49.540;8.574;2024-03-06T12:40:19;12.80;82.60
3348;DHT22;1687;49.540;8.574;2024-03-06T12:42:45;12.90;82.50
3348;DHT22;1687;49.540;8.574;2024-03-06T12:45:11;12.80;82.00
3348;DHT22;1687;49.540;8.574;2024-03-06T12:47:45;12.80;82.00
3348;DHT22;1687;49.540;8.574;2024-03-06T12:50:13;12.80;82.20
3348;DHT22;1687;49.540;8.574;2024-03-06T12:52:40;12.80;81.90
3348;DHT22;1687;49.540;8.574;2024-03-06T12:55:07;12.90;82.10
3348;DHT22;1687;49.540;8.574;2024-03-06T12:57:33;12.90;81.90
3348;DHT22;1687;49.540;8.574;2024-03-06T12:59:59;12.90;82.00
3348;DHT22;1687;49.540;8.574;2024-03-06T13:02:25;13.00;81.80
3348;DHT22;1687;49.540;8.574;2024-03-06T13:04:51;13.00;81.40
3348;DHT22;1687;49.540;8.574;2024-03-06T13:07:17;13.00;81.40
3348;DHT22;1687;49.540;8.574;2024-03-06T13:09:43;13.00;81.30
3348;DHT22;1687;49.540;8.574;2024-03-06T13:12:09;12.90;80.90
3348;DHT22;1687;49.540;8.574;2024-03-06T13:14:35;12.90;80.90
3348;DHT22;1687;49.540;8.574;2024-03-06T13:17:01;12.80;80.70
3348;DHT22;1687;49.540;8.574;2024-03-06T13:19:28;12.90;80.80
3348;DHT22;1687;49.540;8.574;2024-03-06T13:21:54;12.90;80.60
3348;DHT22;1687;49.540;8.574;2024-03-06T13:24:20;12.90;80.60
3348;DHT22;1687;49.540;8.574;2024-03-06T13:26:46;12.90;80.40
3348;DHT22;1687;49.540;8.574;2024-03-06T13:29:13;12.90;80.50
3348;DHT22;1687;49.540;8.574;2024-03-06T13:31:39;13.00;80.70
3348;DHT22;1687;49.540;8.574;2024-03-06T13:34:05;13.10;80.50
3348;DHT22;1687;49.540;8.574;2024-03-06T13:36:31;13.10;80.30
3348;DHT22;1687;49.540;8.574;2024-03-06T13:38:56;13.10;79.80
3348;DHT22;1687;49.540;8.574;2024-03-06T13:41:23;13.10;79.80
3348;DHT22;1687;49.540;8.574;2024-03-06T13:43:49;13.00;79.00
3348;DHT22;1687;49.540;8.574;2024-03-06T13:46:15;12.90;79.30
3348;DHT22;1687;49.540;8.574;2024-03-06T13:48:40;12.90;79.20
3348;DHT22;1687;49.540;8.574;2024-03-06T13:51:06;12.80;78.90
3348;DHT22;1687;49.540;8.574;2024-03-06T13:53:32;12.80;78.90
3348;DHT22;1687;49.540;8.574;2024-03-06T13:55:58;12.80;79.00
3348;DHT22;1687;49.540;8.574;2024-03-06T13:58:24;12.70;78.90
3348;DHT22;1687;49.540;8.574;2024-03-06T14:00:50;12.70;78.70
3348;DHT22;1687;49.540;8.574;2024-03-06T14:03:16;12.70;78.70
3348;DHT22;1687;49.540;8.574;2024-03-06T14:05:42;12.70;78.50
3348;DHT22;1687;49.540;8.574;2024-03-06T14:08:08;12.70;78.70
3348;DHT22;1687;49.540;8.574;2024-03-06T14:10:38;12.70;78.50
3348;DHT22;1687;49.540;8.574;2024-03-06T14:13:04;12.70;78.40
3348;DHT22;1687;49.540;8.574;2024-03-06T14:15:32;12.70;78.50
3348;DHT22;1687;49.540;8.574;2024-03-06T14:17:58;12.70;78.30
3348;DHT22;1687;49.540;8.574;2024-03-06T14:20:23;12.70;78.30
3348;DHT22;1687;49.540;8.574;2024-03-06T14:22:49;12.60;78.10
3348;DHT22;1687;49.540;8.574;2024-03-06T14:25:15;12.60;78.00
3348;DHT22;1687;49.540;8.574;2024-03-06T14:27:41;12.60;78.30
3348;DHT22;1687;49.540;8.574;2024-03-06T14:30:08;12.80;78.50
3348;DHT22;1687;49.540;8.574;2024-03-06T14:32:34;12.80;78.50
3348;DHT22;1687;49.540;8.574;2024-03-06T14:35:01;12.80;77.90
3348;DHT22;1687;49.540;8.574;2024-03-06T14:37:26;12.80;77.90
3348;DHT22;1687;49.540;8.574;2024-03-06T14:39:53;12.70;78.00
3348;DHT22;1687;49.540;8.574;2024-03-06T14:42:19;12.60;77.90
3348;DHT22;1687;49.540;8.574;2024-03-06T14:44:45;12.60;77.70
3348;DHT22;1687;49.540;8.574;2024-03-06T14:47:12;12.60;77.70
3348;DHT22;1687;49.540;8.574;2024-03-06T14:49:37;12.60;77.80
3348;DHT22;1687;49.540;8.574;2024-03-06T14:52:05;12.60;77.80
3348;DHT22;1687;49.540;8.574;2024-03-06T14:54:31;12.60;77.90
3348;DHT22;1687;49.540;8.574;2024-03-06T14:56:57;12.60;77.80
3348;DHT22;1687;49.540;8.574;2024-03-06T14:59:23;12.60;78.10
3348;DHT22;1687;49.540;8.574;2024-03-06T15:01:49;12.70;77.90
3348;DHT22;1687;49.540;8.574;2024-03-06T15:04:16;12.70;78.20
3348;DHT22;1687;49.540;8.574;2024-03-06T15:06:42;12.70;77.90
3348;DHT22;1687;49.540;8.574;2024-03-06T15:09:08;12.70;77.90
3348;DHT22;1687;49.540;8.574;2024-03-06T15:11:37;12.70;77.90
3348;DHT22;1687;49.540;8.574;2024-03-06T15:14:03;12.70;77.90
3348;DHT22;1687;49.540;8.574;2024-03-06T15:16:30;12.70;77.90
3348;DHT22;1687;49.540;8.574;2024-03-06T15:18:56;12.70;78.10
3348;DHT22;1687;49.540;8.574;2024-03-06T15:21:23;12.70;78.00
3348;DHT22;1687;49.540;8.574;2024-03-06T15:23:49;12.70;78.00
3348;DHT22;1687;49.540;8.574;2024-03-06T15:26:18;12.80;78.10
3348;DHT22;1687;49.540;8.574;2024-03-06T15:28:44;12.80;78.20
3348;DHT22;1687;49.540;8.574;2024-03-06T15:31:13;12.90;78.60
3348;DHT22;1687;49.540;8.574;2024-03-06T15:33:39;12.90;78.40
3348;DHT22;1687;49.540;8.574;2024-03-06T15:36:05;13.00;78.50
3348;DHT22;1687;49.540;8.574;2024-03-06T15:38:31;13.00;78.60
3348;DHT22;1687;49.540;8.574;2024-03-06T15:40:57;13.10;78.60
3348;DHT22;1687;49.540;8.574;2024-03-06T15:43:23;13.00;78.60
3348;DHT22;1687;49.540;8.574;2024-03-06T15:45:48;13.00;78.60
3348;DHT22;1687;49.540;8.574;2024-03-06T15:48:14;13.00;78.90
3348;DHT22;1687;49.540;8.574;2024-03-06T15:50:43;13.10;78.90
3348;DHT22;1687;49.540;8.574;2024-03-06T15:53:09;13.10;79.10
3348;DHT22;1687;49.540;8.574;2024-03-06T15:55:39;13.10;79.30
3348;DHT22;1687;49.540;8.574;2024-03-06T15:58:05;13.10;79.30
3348;DHT22;1687;49.540;8.574;2024-03-06T16:00:31;13.10;79.20
3348;DHT22;1687;49.540;8.574;2024-03-06T16:02:57;13.00;79.00
3348;DHT22;1687;49.540;8.574;2024-03-06T16:05:24;12.90;79.00
3348;DHT22;1687;49.540;8.574;2024-03-06T16:07:52;12.90;79.40
3348;DHT22;1687;49.540;8.574;2024-03-06T16:10:22;13.00;79.50
3348;DHT22;1687;49.540;8.574;2024-03-06T16:12:48;13.00;79.70
3348;DHT22;1687;49.540;8.574;2024-03-06T16:15:14;13.00;79.80
3348;DHT22;1687;49.540;8.574;2024-03-06T16:17:41;13.10;80.00